Time;durP1;ratioP1;P1;durP2;ratioP2;P2;SDS_P1;SDS_P2;PMS_P1;PMS_P2;Temp;Humidity;BMP_temperature;BMP_pressure;BME280_temperature;BME280_humidity;BME280_pressure;Samples;Min_cycle;Max_cycle;Signal;HPM_P1;HPM_P2
2023/05/25 00:02:24;;;;;;;8.13;7.63;;;12.90;99.90;;;;;;4929166;29;20471;-84
2023/05/25 00:04:52;;;;;;;8.57;7.87;;;12.90;99.90;;;;;;4925381;29;20500;-84
2023/05/25 00:07:21;;;;;;;7.80;7.30;;;12.90;99.90;;;;;;4917482;29;20831;-84
2023/05/25 00:09:49;;;;;;;7.73;7.20;;;12.90;99.90;;;;;;4941197;29;20543;-84
2023/05/25 00:12:17;;;;;;;7.83;7.40;;;12.90;99.90;;;;;;4926953;29;20467;-86
2023/05/25 00:14:45;;;;;;;8.47;7.87;;;13.00;99.90;;;;;;4931845;29;20467;-87
2023/05/25 00:17:14;;;;;;;8.17;7.67;;;13.00;99.90;;;;;;4930672;29;20484;-86
2023/05/25 00:19:44;;;;;;;8.50;7.93;;;13.00;99.90;;;;;;4927540;29;20583;-86
2023/05/25 00:22:12;;;;;;;8.83;8.30;;;12.90;99.90;;;;;;4929463;29;20464;-86
2023/05/25 00:24:40;;;;;;;8.83;8.30;;;12.90;99.90;;;;;;4929450;29;20523;-86
2023/05/25 00:27:08;;;;;;;9.00;8.27;;;12.90;99.90;;;;;;4929213;29;20462;-86
2023/05/25 00:29:37;;;;;;;8.40;7.90;;;12.90;99.90;;;;;;4923791;29;20501;-84
2023/05/25 00:32:05;;;;;;;8.20;7.60;;;12.90;99.90;;;;;;4929363;29;20452;-86
2023/05/25 00:34:35;;;;;;;8.33;7.87;;;12.90;99.90;;;;;;4928662;29;20874;-85
2023/05/25 00:37:04;;;;;;;8.43;7.93;;;12.80;99.90;;;;;;4924007;29;21095;-84
2023/05/25 00:39:32;;;;;;;8.20;7.70;;;12.80;99.90;;;;;;4927705;29;20493;-85
2023/05/25 00:42:03;;;;;;;9.83;7.93;;;12.90;99.90;;;;;;4927421;29;20493;-85
2023/05/25 00:44:31;;;;;;;8.27;7.83;;;12.90;99.90;;;;;;4925940;29;20454;-85
2023/05/25 00:47:00;;;;;;;8.03;7.53;;;12.80;99.90;;;;;;4925362;29;20456;-84
2023/05/25 00:49:30;;;;;;;8.20;7.60;;;12.70;99.90;;;;;;4923959;29;21668;-84
2023/05/25 00:51:59;;;;;;;8.30;7.60;;;12.70;99.90;;;;;;4945750;28;20450;-85
2023/05/25 00:54:28;;;;;;;8.27;7.63;;;12.60;99.90;;;;;;4927988;29;20569;-86
2023/05/25 00:57:04;;;;;;;7.60;7.20;;;12.60;99.90;;;;;;4927716;29;20487;-86
2023/05/25 00:59:39;;;;;;;7.73;7.10;;;12.60;99.90;;;;;;4927799;29;20565;-86
2023/05/25 01:02:09;;;;;;;9.13;8.23;;;12.60;99.90;;;;;;4928273;29;20495;-86
2023/05/25 01:04:44;;;;;;;7.93;7.33;;;12.60;99.90;;;;;;4930697;29;20518;-84
2023/05/25 01:07:17;;;;;;;8.40;8.00;;;12.60;99.90;;;;;;4928782;29;20522;-87
2023/05/25 01:09:48;;;;;;;8.10;7.47;;;12.60;99.90;;;;;;4926776;29;20505;-85
2023/05/25 01:12:17;;;;;;;8.57;8.07;;;12.60;99.90;;;;;;4930554;29;20508;-86
2023/05/25 01:14:48;;;;;;;9.13;8.30;;;12.70;99.90;;;;;;4926128;29;20960;-85
2023/05/25 01:17:19;;;;;;;7.60;6.90;;;12.70;99.90;;;;;;4924025;29;20593;-85
2023/05/25 01:19:47;;;;;;;8.33;7.80;;;12.70;99.90;;;;;;4922891;29;20743;-85
2023/05/25 01:22:40;;;;;;;8.50;7.90;;;12.70;99.90;;;;;;4923535;29;20503;-86
2023/05/25 01:25:13;;;;;;;8.23;7.63;;;12.70;99.90;;;;;;4923321;29;20465;-87
2023/05/25 01:27:47;;;;;;;9.27;8.33;;;12.60;99.90;;;;;;4925450;29;20453;-86
2023/05/25 01:30:16;;;;;;;7.90;7.30;;;12.50;99.90;;;;;;4927171;29;20996;-85
2023/05/25 01:32:45;;;;;;;8.67;8.00;;;12.50;99.90;;;;;;4926002;29;20464;-86
2023/05/25 01:35:15;;;;;;;8.20;7.90;;;12.50;99.90;;;;;;4925185;29;20556;-86
2023/05/25 01:37:47;;;;;;;8.27;7.73;;;12.50;99.90;;;;;;4927934;29;21099;-85
2023/05/25 01:40:16;;;;;;;9.27;8.60;;;12.50;99.90;;;;;;4925528;29;20566;-86
2023/05/25 01:42:44;;;;;;;9.47;8.63;;;12.50;99.90;;;;;;4925961;29;20494;-85
2023/05/25 01:45:14;;;;;;;8.80;8.20;;;12.40;99.90;;;;;;4939198;28;20517;-86
2023/05/25 01:47:52;;;;;;;8.40;7.77;;;12.50;99.90;;;;;;4926617;29;20509;-85
2023/05/25 01:50:26;;;;;;;8.57;8.10;;;12.40;99.90;;;;;;4923887;29;21009;-85
2023/05/25 01:53:02;;;;;;;9.10;8.53;;;12.40;99.90;;;;;;4929590;29;20461;-85
2023/05/25 01:55:36;;;;;;;9.47;8.90;;;12.40;99.90;;;;;;4944888;28;20548;-85
2023/05/25 01:58:07;;;;;;;9.80;9.20;;;12.40;99.90;;;;;;4926838;29;20477;-85
2023/05/25 02:00:37;;;;;;;9.77;9.00;;;12.40;99.90;;;;;;4924897;29;20544;-85
2023/05/25 02:03:05;;;;;;;9.47;9.00;;;12.40;99.90;;;;;;4926523;29;20483;-85
2023/05/25 02:05:33;;;;;;;8.23;7.83;;;12.30;99.90;;;;;;4922091;29;20466;-85
2023/05/25 02:08:03;;;;;;;8.93;8.33;;;12.30;99.90;;;;;;4918780;29;20455;-84
2023/05/25 02:10:31;;;;;;;9.37;8.60;;;12.30;99.90;;;;;;4953655;28;20921;-84
2023/05/25 02:12:59;;;;;;;9.40;8.70;;;12.20;99.90;;;;;;4926713;29;20523;-85
2023/05/25 02:15:32;;;;;;;9.13;8.63;;;12.20;99.90;;;;;;4921698;29;20551;-84
2023/05/25 02:18:00;;;;;;;9.07;8.47;;;12.20;99.90;;;;;;4927707;29;20499;-84
2023/05/25 02:20:28;;;;;;;9.30;8.70;;;12.20;99.90;;;;;;4945491;28;20479;-85
2023/05/25 02:22:56;;;;;;;9.90;9.23;;;12.20;99.90;;;;;;4924337;29;20889;-85
2023/05/25 02:25:26;;;;;;;10.27;9.37;;;12.20;99.90;;;;;;4940145;29;20490;-85
2023/05/25 02:27:54;;;;;;;9.93;9.13;;;12.10;99.90;;;;;;4923121;29;20463;-85
2023/05/25 02:30:22;;;;;;;8.30;7.87;;;12.20;99.90;;;;;;4924174;29;20492;-84
2023/05/25 02:32:50;;;;;;;9.70;9.10;;;12.10;99.90;;;;;;4930609;29;20468;-85
2023/05/25 02:35:18;;;;;;;9.87;8.97;;;12.20;99.90;;;;;;4923356;29;20482;-85
2023/05/25 02:37:46;;;;;;;9.20;8.60;;;12.20;99.90;;;;;;4923804;29;20494;-85
2023/05/25 02:40:18;;;;;;;9.77;9.00;;;12.20;99.90;;;;;;4921963;29;21052;-84
2023/05/25 02:42:48;;;;;;;9.00;8.40;;;12.10;99.90;;;;;;4926462;29;20459;-85
2023/05/25 02:45:16;;;;;;;9.40;8.50;;;12.10;99.90;;;;;;4923871;29;20470;-85
2023/05/25 02:47:45;;;;;;;9.93;9.30;;;12.00;99.90;;;;;;4927374;29;21418;-86
2023/05/25 02:50:13;;;;;;;9.20;8.70;;;12.00;99.90;;;;;;4926616;29;20473;-85
2023/05/25 02:52:41;;;;;;;9.30;8.80;;;12.00;99.90;;;;;;4927165;29;20468;-87
2023/05/25 02:55:12;;;;;;;9.50;8.80;;;12.00;99.90;;;;;;4927205;29;20465;-86
2023/05/25 02:57:40;;;;;;;9.10;8.50;;;12.00;99.90;;;;;;4925133;29;20488;-85
2023/05/25 03:00:11;;;;;;;9.53;8.93;;;12.00;99.90;;;;;;4928129;29;20491;-85
2023/05/25 03:02:39;;;;;;;10.27;9.77;;;11.90;99.90;;;;;;4927967;29;20471;-85
2023/05/25 03:05:08;;;;;;;9.67;9.10;;;11.90;99.90;;;;;;4950904;28;20469;-85
2023/05/25 03:07:36;;;;;;;9.83;9.43;;;11.90;99.90;;;;;;4929392;29;20566;-84
2023/05/25 03:10:05;;;;;;;10.10;9.40;;;11.90;99.90;;;;;;4929019;29;20485;-85
2023/05/25 03:12:33;;;;;;;9.50;9.00;;;11.90;99.90;;;;;;4927560;29;20459;-85
2023/05/25 03:15:01;;;;;;;10.87;10.00;;;11.90;99.90;;;;;;4955320;28;20462;-85
2023/05/25 03:17:31;;;;;;;10.80;10.20;;;11.80;99.90;;;;;;4922424;29;20670;-85
2023/05/25 03:19:59;;;;;;;10.50;9.80;;;11.80;99.90;;;;;;4926757;29;20474;-86
2023/05/25 03:22:27;;;;;;;10.50;9.60;;;11.80;99.90;;;;;;4924016;29;20469;-87
2023/05/25 03:24:55;;;;;;;10.87;10.07;;;11.80;99.90;;;;;;4928262;29;21041;-86
2023/05/25 03:27:24;;;;;;;10.57;9.90;;;11.70;99.90;;;;;;4930458;29;20462;-86
2023/05/25 03:29:52;;;;;;;10.07;9.40;;;11.80;99.90;;;;;;4929615;29;20469;-87
2023/05/25 03:32:21;;;;;;;9.90;9.40;;;11.70;99.90;;;;;;4929913;29;20457;-86
2023/05/25 03:34:51;;;;;;;11.33;10.40;;;11.60;99.90;;;;;;4932256;29;20497;-86
2023/05/25 03:37:19;;;;;;;10.80;10.20;;;11.60;99.90;;;;;;4932089;29;20464;-85
2023/05/25 03:39:47;;;;;;;10.80;10.10;;;11.70;99.90;;;;;;4929591;29;20517;-85
2023/05/25 03:42:16;;;;;;;10.77;10.07;;;11.60;99.90;;;;;;4929945;29;20550;-87
2023/05/25 03:44:44;;;;;;;10.80;9.83;;;11.60;99.90;;;;;;4929596;29;20473;-86
2023/05/25 03:47:12;;;;;;;10.47;9.67;;;11.60;99.90;;;;;;4923898;29;20476;-84
2023/05/25 03:49:40;;;;;;;10.70;9.90;;;11.60;99.90;;;;;;4945244;28;20492;-86
2023/05/25 03:52:10;;;;;;;10.70;10.10;;;11.60;99.90;;;;;;4931430;29;20466;-86
2023/05/25 03:54:38;;;;;;;10.93;10.00;;;11.60;99.90;;;;;;4932230;29;20797;-85
2023/05/25 03:57:06;;;;;;;11.17;10.23;;;11.60;99.90;;;;;;4930244;29;20479;-86
2023/05/25 03:59:34;;;;;;;11.23;10.27;;;11.60;99.90;;;;;;4929985;29;20492;-86
2023/05/25 04:02:02;;;;;;;11.20;10.60;;;11.50;99.90;;;;;;4924082;29;20456;-85
2023/05/25 04:04:30;;;;;;;11.53;10.57;;;11.50;99.90;;;;;;4932092;29;20559;-85
2023/05/25 04:06:59;;;;;;;10.63;9.90;;;11.60;99.90;;;;;;4925370;29;20449;-84
2023/05/25 04:09:28;;;;;;;11.30;10.70;;;11.60;99.90;;;;;;4928529;29;20483;-85
2023/05/25 04:11:56;;;;;;;11.67;10.83;;;11.60;99.90;;;;;;4922138;29;20465;-83
2023/05/25 04:14:25;;;;;;;12.03;11.27;;;11.60;99.90;;;;;;4928769;29;20461;-84
2023/05/25 04:16:53;;;;;;;11.50;10.80;;;11.50;99.90;;;;;;4927489;29;20448;-85
2023/05/25 04:19:21;;;;;;;11.20;10.60;;;11.50;99.90;;;;;;4924221;29;20497;-85
2023/05/25 04:21:49;;;;;;;12.07;11.13;;;11.50;99.90;;;;;;4926250;29;20453;-85
2023/05/25 04:24:17;;;;;;;12.33;10.40;;;11.50;99.90;;;;;;4939863;28;20491;-84
2023/05/25 04:26:48;;;;;;;11.63;10.97;;;11.50;99.90;;;;;;4926565;29;20466;-83
2023/05/25 04:29:16;;;;;;;12.50;11.70;;;11.50;99.90;;;;;;4928249;29;20568;-83
2023/05/25 04:31:46;;;;;;;11.50;10.87;;;11.60;99.90;;;;;;4928597;29;21163;-82
2023/05/25 04:34:14;;;;;;;12.33;11.23;;;11.50;99.90;;;;;;4930148;29;20546;-87
2023/05/25 04:36:43;;;;;;;11.97;11.10;;;11.60;99.90;;;;;;4928740;29;20467;-86
2023/05/25 04:39:11;;;;;;;12.37;11.37;;;11.70;99.90;;;;;;4926466;29;20518;-88
2023/05/25 04:41:39;;;;;;;12.53;11.57;;;11.70;99.90;;;;;;4929902;29;20548;-88
2023/05/25 04:44:09;;;;;;;11.60;10.90;;;11.80;99.90;;;;;;4931239;29;20465;-88
2023/05/25 04:46:37;;;;;;;12.70;11.77;;;11.70;99.90;;;;;;4927342;29;20900;-88
2023/05/25 04:49:08;;;;;;;11.23;10.50;;;11.80;99.90;;;;;;4928736;29;20937;-88
2023/05/25 04:51:37;;;;;;;12.00;10.90;;;11.80;99.90;;;;;;4928626;29;20467;-88
2023/05/25 04:54:06;;;;;;;13.03;12.13;;;11.90;99.90;;;;;;4928257;28;20465;-88
2023/05/25 04:56:34;;;;;;;12.40;11.53;;;11.90;99.90;;;;;;4924966;29;20463;-90
2023/05/25 04:59:03;;;;;;;13.20;12.20;;;11.90;99.90;;;;;;4929911;29;20498;-91
2023/05/25 05:01:33;;;;;;;12.03;11.33;;;12.00;99.90;;;;;;4926623;29;21205;-89
2023/05/25 05:08:08;;;;;;;13.20;12.07;;;12.00;99.90;;;;;;4886470;29;20599;-84
2023/05/25 05:10:54;;;;;;;13.40;12.50;;;12.00;99.90;;;;;;4885732;29;20487;-82
2023/05/25 05:13:46;;;;;;;13.50;12.20;;;12.10;99.90;;;;;;4920712;29;20486;-82
2023/05/25 05:16:53;;;;;;;13.50;12.43;;;12.10;99.90;;;;;;4921227;29;20557;-82
2023/05/25 05:25:44;;;;;;;13.47;12.50;;;12.30;99.90;;;;;;4887540;29;20513;-84
2023/05/25 05:32:48;;;;;;;13.77;12.90;;;12.30;99.90;;;;;;4872589;29;20459;-83
2023/05/25 05:35:17;;;;;;;13.43;12.47;;;12.40;99.90;;;;;;4883187;29;21002;-84
2023/05/25 05:37:45;;;;;;;12.90;12.20;;;12.40;99.90;;;;;;4889382;29;20460;-83
2023/05/25 05:40:14;;;;;;;16.03;13.27;;;12.50;99.90;;;;;;4883083;29;20508;-81
2023/05/25 05:42:42;;;;;;;12.60;11.67;;;12.50;99.90;;;;;;4884816;29;20533;-81
2023/05/25 05:45:11;;;;;;;13.37;12.30;;;12.60;99.90;;;;;;4885946;29;20467;-83
2023/05/25 05:47:39;;;;;;;13.37;12.40;;;12.60;99.90;;;;;;4886210;29;20495;-80
2023/05/25 05:50:09;;;;;;;13.83;12.53;;;12.70;99.90;;;;;;4886586;29;21073;-82
2023/05/25 05:52:37;;;;;;;13.40;12.50;;;12.80;99.90;;;;;;4913080;29;20472;-82
2023/05/25 05:55:06;;;;;;;13.63;12.57;;;12.80;99.90;;;;;;4923065;29;20454;-85
2023/05/25 05:57:34;;;;;;;14.00;13.27;;;12.90;99.90;;;;;;4925468;29;20471;-84
2023/05/25 06:00:05;;;;;;;14.87;13.70;;;13.00;99.90;;;;;;4924590;29;20490;-86
2023/05/25 06:02:33;;;;;;;14.63;13.33;;;13.00;99.90;;;;;;4927099;29;20462;-83
2023/05/25 06:05:02;;;;;;;14.50;13.53;;;13.10;99.90;;;;;;4925906;29;20471;-84
2023/05/25 06:07:33;;;;;;;14.30;13.33;;;13.20;99.90;;;;;;4937337;28;20460;-83
2023/05/25 06:10:02;;;;;;;15.13;13.80;;;13.30;99.90;;;;;;4912547;29;20472;-83
2023/05/25 06:12:30;;;;;;;15.33;14.37;;;13.40;99.90;;;;;;4926040;29;20448;-84
2023/05/25 06:14:58;;;;;;;15.50;14.50;;;13.50;99.90;;;;;;4928808;29;20476;-84
2023/05/25 06:17:28;;;;;;;14.83;13.90;;;13.60;99.90;;;;;;4940386;28;20484;-83
2023/05/25 06:19:56;;;;;;;15.00;14.20;;;13.70;99.90;;;;;;4920488;29;20500;-82
2023/05/25 06:22:26;;;;;;;15.00;14.10;;;13.70;99.90;;;;;;4926662;29;20473;-83
2023/05/25 06:24:56;;;;;;;14.60;13.87;;;13.70;99.90;;;;;;4942868;28;20897;-83
2023/05/25 06:27:27;;;;;;;16.17;15.13;;;13.80;99.90;;;;;;4925779;29;20464;-83
2023/05/25 06:29:56;;;;;;;16.10;14.97;;;13.90;99.90;;;;;;4923837;29;20473;-82
2023/05/25 06:32:24;;;;;;;15.90;14.60;;;14.00;99.90;;;;;;4921716;29;20471;-82
2023/05/25 06:34:52;;;;;;;16.10;14.50;;;14.10;99.90;;;;;;4927954;29;20455;-82
2023/05/25 06:37:22;;;;;;;16.03;14.70;;;14.20;99.90;;;;;;4924261;29;20472;-84
2023/05/25 06:39:50;;;;;;;15.77;14.83;;;14.20;99.90;;;;;;4921340;29;20504;-83
2023/05/25 06:42:21;;;;;;;15.27;14.50;;;14.40;99.90;;;;;;4920642;29;20970;-82
2023/05/25 06:44:50;;;;;;;15.13;14.17;;;14.50;99.90;;;;;;4924754;29;20529;-86
2023/05/25 06:47:18;;;;;;;15.50;14.60;;;14.60;99.90;;;;;;4927491;29;20495;-88
2023/05/25 06:49:46;;;;;;;16.33;15.13;;;14.60;99.90;;;;;;4928088;29;20477;-85
2023/05/25 06:52:15;;;;;;;16.90;15.83;;;14.70;99.90;;;;;;4929831;29;20532;-87
2023/05/25 06:54:43;;;;;;;16.90;15.70;;;14.70;99.90;;;;;;4927849;29;20543;-85
2023/05/25 06:57:11;;;;;;;15.27;14.40;;;14.80;99.90;;;;;;4930179;29;20446;-86
2023/05/25 06:59:41;;;;;;;17.53;16.33;;;14.80;99.90;;;;;;4928839;29;20493;-87
2023/05/25 07:02:09;;;;;;;16.93;15.80;;;14.90;99.90;;;;;;4931479;29;20480;-89
2023/05/25 07:04:37;;;;;;;17.90;16.60;;;15.00;99.90;;;;;;4926882;29;20576;-83
2023/05/25 07:07:06;;;;;;;17.47;16.47;;;15.00;99.90;;;;;;4930260;29;20217;-84
2023/05/25 07:09:34;;;;;;;17.43;16.20;;;15.10;99.90;;;;;;4928138;29;20842;-83
2023/05/25 07:12:06;;;;;;;17.47;16.50;;;15.20;99.90;;;;;;4929344;29;20519;-83
2023/05/25 07:14:34;;;;;;;18.13;16.70;;;15.20;99.90;;;;;;4929722;29;20438;-86
2023/05/25 07:17:04;;;;;;;17.20;16.00;;;15.30;99.90;;;;;;4925854;29;20461;-83
2023/05/25 07:19:32;;;;;;;18.27;16.80;;;15.30;99.90;;;;;;4925227;29;20979;-83
2023/05/25 07:22:00;;;;;;;18.20;17.00;;;15.30;99.90;;;;;;4930552;29;20457;-83
2023/05/25 07:24:28;;;;;;;19.50;17.93;;;15.20;99.90;;;;;;4929889;29;20461;-83
2023/05/25 07:26:57;;;;;;;18.80;17.23;;;15.30;99.90;;;;;;4928484;29;20557;-83
2023/05/25 07:29:25;;;;;;;17.90;16.37;;;15.30;99.90;;;;;;4930352;29;20500;-83
2023/05/25 07:31:53;;;;;;;18.20;17.00;;;15.30;99.90;;;;;;4930695;29;20468;-83
2023/05/25 07:34:23;;;;;;;17.63;16.63;;;15.20;99.90;;;;;;4930946;29;20553;-84
2023/05/25 07:36:54;;;;;;;17.37;16.47;;;15.20;99.90;;;;;;4928677;29;20630;-82
2023/05/25 07:39:22;;;;;;;17.50;16.70;;;15.20;99.90;;;;;;4929953;29;20473;-83
2023/05/25 07:41:50;;;;;;;18.40;16.80;;;15.20;99.90;;;;;;4949483;28;21226;-83
2023/05/25 07:44:18;;;;;;;18.87;17.37;;;15.20;99.90;;;;;;4929062;29;20783;-83
2023/05/25 07:46:47;;;;;;;19.23;17.80;;;15.20;99.90;;;;;;4928521;29;20512;-84
2023/05/25 07:49:15;;;;;;;18.80;17.50;;;15.20;99.90;;;;;;4928301;29;20523;-84
2023/05/25 07:51:45;;;;;;;18.60;17.27;;;15.20;99.90;;;;;;4927453;29;20461;-85
2023/05/25 07:54:13;;;;;;;18.70;17.50;;;15.20;99.90;;;;;;4929383;29;20456;-84
2023/05/25 07:56:44;;;;;;;18.13;17.23;;;15.30;99.90;;;;;;4928629;29;20476;-83
2023/05/25 07:59:13;;;;;;;17.97;17.03;;;15.30;99.90;;;;;;4927911;29;20762;-83
2023/05/25 08:01:41;;;;;;;18.83;17.40;;;15.40;99.90;;;;;;4929623;29;21203;-80
2023/05/25 08:04:12;;;;;;;18.27;17.13;;;15.50;99.90;;;;;;4926798;29;20465;-83
2023/05/25 08:06:41;;;;;;;18.13;17.17;;;15.60;99.90;;;;;;4928746;29;20457;-83
2023/05/25 08:09:12;;;;;;;20.47;19.10;;;15.70;99.90;;;;;;4923326;29;20494;-83
2023/05/25 08:11:56;;;;;;;19.53;18.00;;;15.80;99.90;;;;;;4917559;29;20551;-84
2023/05/25 08:15:59;;;;;;;19.13;17.80;;;15.70;99.90;;;;;;4915540;29;25300;-83
2023/05/25 08:18:31;;;;;;;18.67;17.70;;;15.70;99.90;;;;;;4917649;29;20470;-84
2023/05/25 08:21:24;;;;;;;19.10;17.90;;;15.70;99.90;;;;;;4918552;29;20569;-83
2023/05/25 08:23:53;;;;;;;19.73;18.50;;;15.70;99.90;;;;;;4922387;29;20480;-83
2023/05/25 08:26:29;;;;;;;19.87;18.50;;;15.90;99.90;;;;;;4920881;29;20611;-83
2023/05/25 08:29:18;;;;;;;19.80;18.50;;;15.90;99.90;;;;;;4915760;29;21138;-83
2023/05/25 08:31:48;;;;;;;19.57;18.53;;;16.00;99.90;;;;;;4919663;29;20461;-83
2023/05/25 08:34:17;;;;;;;20.57;19.03;;;16.10;99.90;;;;;;4919996;29;21030;-83
2023/05/25 08:37:03;;;;;;;20.60;19.30;;;16.20;99.90;;;;;;4949401;28;20517;-83
2023/05/25 08:39:59;;;;;;;19.57;18.37;;;16.20;99.90;;;;;;4921588;29;20486;-83
2023/05/25 08:42:48;;;;;;;21.80;20.07;;;16.30;99.90;;;;;;4920227;29;20462;-83
2023/05/25 08:45:47;;;;;;;21.80;20.37;;;16.30;99.90;;;;;;4923933;29;20447;-83
2023/05/25 08:55:04;;;;;;;20.10;19.03;;;16.60;99.90;;;;;;4885510;29;20559;-83
2023/05/25 08:58:23;;;;;;;20.37;19.17;;;16.70;99.90;;;;;;4911155;29;20596;-83
2023/05/25 09:00:58;;;;;;;21.80;20.30;;;16.80;99.90;;;;;;4885091;29;20485;-84
2023/05/25 09:03:28;;;;;;;22.67;20.77;;;16.80;99.90;;;;;;4879544;29;20476;-83
2023/05/25 09:05:57;;;;;;;19.93;19.03;;;16.80;99.90;;;;;;4887947;29;20916;-83
2023/05/25 09:08:25;;;;;;;21.43;19.93;;;16.90;99.90;;;;;;4893502;29;20469;-83
2023/05/25 09:10:56;;;;;;;21.30;20.00;;;16.90;99.90;;;;;;4893382;29;21034;-83
2023/05/25 09:13:24;;;;;;;21.40;20.17;;;17.00;99.90;;;;;;4891672;29;20453;-82
2023/05/25 09:15:53;;;;;;;21.97;20.50;;;17.00;99.90;;;;;;4884193;29;20473;-82
2023/05/25 09:18:21;;;;;;;22.00;20.70;;;17.10;99.90;;;;;;4891712;29;20481;-83
2023/05/25 09:20:50;;;;;;;21.00;19.83;;;17.10;99.90;;;;;;4885070;29;20492;-82
2023/05/25 09:23:19;;;;;;;22.80;21.50;;;17.20;99.90;;;;;;4889092;29;20472;-82
2023/05/25 09:25:49;;;;;;;21.57;20.03;;;17.30;99.90;;;;;;4891833;29;20473;-83
2023/05/25 09:28:20;;;;;;;21.07;19.87;;;17.40;99.90;;;;;;4890781;29;20462;-82
2023/05/25 09:31:12;;;;;;;21.90;20.50;;;17.50;99.90;;;;;;4894351;29;20478;-83
2023/05/25 09:33:41;;;;;;;20.63;19.20;;;17.50;99.90;;;;;;4892616;29;20703;-83
2023/05/25 09:36:21;;;;;;;21.80;20.60;;;17.60;99.90;;;;;;4894787;29;20514;-82
2023/05/25 09:39:25;;;;;;;22.40;20.87;;;17.60;99.90;;;;;;4903310;29;20498;-82
2023/05/25 09:42:30;;;;;;;20.17;18.90;;;17.60;99.90;;;;;;4908988;29;20847;-83
2023/05/25 09:45:03;;;;;;;21.60;20.27;;;17.70;99.90;;;;;;4893116;29;21047;-82
2023/05/25 09:47:35;;;;;;;21.63;20.40;;;17.80;99.90;;;;;;4892340;29;20458;-84
2023/05/25 09:50:05;;;;;;;22.17;20.87;;;17.90;99.90;;;;;;4893798;29;20479;-83
2023/05/25 09:52:52;;;;;;;23.10;21.43;;;17.90;99.90;;;;;;4895298;29;20466;-82
2023/05/25 09:55:39;;;;;;;21.57;20.07;;;18.00;99.90;;;;;;4894020;29;20458;-83
2023/05/25 09:58:18;;;;;;;21.33;20.03;;;18.00;99.90;;;;;;4893472;29;20481;-81
2023/05/25 10:00:55;;;;;;;22.47;20.90;;;18.00;99.90;;;;;;4893375;29;20482;-81
2023/05/25 10:04:04;;;;;;;20.40;19.40;;;18.00;99.90;;;;;;4895853;29;20843;-82
2023/05/25 10:06:44;;;;;;;22.60;20.80;;;18.00;99.90;;;;;;4897479;29;20458;-83
2023/05/25 10:09:44;;;;;;;21.97;20.63;;;18.10;99.90;;;;;;4894860;29;21162;-83
2023/05/25 10:19:13;;;;;;;22.20;21.00;;;18.30;99.90;;;;;;4872671;29;20494;-83
2023/05/25 10:21:43;;;;;;;22.63;21.23;;;18.40;99.90;;;;;;4888364;29;21268;-82
2023/05/25 10:24:22;;;;;;;22.83;21.43;;;18.40;99.90;;;;;;4890985;29;20459;-83
2023/05/25 10:26:54;;;;;;;21.00;20.00;;;18.50;99.90;;;;;;4890084;29;20984;-82
2023/05/25 10:29:23;;;;;;;21.50;20.50;;;18.50;99.90;;;;;;4888752;29;20475;-82
2023/05/25 10:31:55;;;;;;;21.00;19.63;;;18.60;99.90;;;;;;4895486;29;20471;-82
2023/05/25 10:34:29;;;;;;;22.00;20.57;;;18.60;99.90;;;;;;4890299;29;20991;-82
2023/05/25 10:36:58;;;;;;;21.87;20.50;;;18.70;99.90;;;;;;4898218;29;20493;-80
2023/05/25 10:39:26;;;;;;;21.83;20.30;;;18.90;99.90;;;;;;4895513;29;20484;-81
2023/05/25 10:41:58;;;;;;;21.73;20.50;;;18.90;99.90;;;;;;4907724;29;21098;-81
2023/05/25 10:44:33;;;;;;;22.00;20.80;;;19.00;99.90;;;;;;4894318;29;20495;-82
2023/05/25 10:47:20;;;;;;;22.53;21.13;;;19.10;99.90;;;;;;4893185;29;20506;-82
2023/05/25 10:50:10;;;;;;;21.20;19.77;;;19.10;99.90;;;;;;4893048;29;22194;-82
2023/05/25 10:53:03;;;;;;;21.50;20.30;;;19.10;99.90;;;;;;4895174;29;20470;-82
2023/05/25 10:56:01;;;;;;;21.00;19.90;;;19.10;99.90;;;;;;4889751;29;20466;-81
2023/05/25 10:58:30;;;;;;;20.97;19.83;;;19.10;99.90;;;;;;4894015;29;20494;-82
2023/05/25 11:01:06;;;;;;;20.83;19.83;;;19.20;99.90;;;;;;4895320;29;20478;-82
2023/05/25 11:04:35;;;;;;;21.43;20.40;;;19.20;99.90;;;;;;4893156;29;20474;-82
2023/05/25 11:07:15;;;;;;;22.80;20.70;;;19.20;99.90;;;;;;4895127;29;20455;-83
2023/05/25 11:10:22;;;;;;;22.73;21.03;;;19.20;99.90;;;;;;4894012;29;20478;-82
2023/05/25 11:13:38;;;;;;;21.90;20.60;;;19.20;99.90;;;;;;4888309;29;20551;-82
2023/05/25 11:16:57;;;;;;;20.83;19.50;;;19.20;99.90;;;;;;4892741;29;20607;-83
2023/05/25 11:20:01;;;;;;;22.03;20.60;;;19.20;99.90;;;;;;4890771;29;20475;-83
2023/05/25 11:22:55;;;;;;;20.77;19.47;;;19.20;99.90;;;;;;4890922;29;21179;-82
2023/05/25 11:25:47;;;;;;;21.30;20.20;;;19.20;99.90;;;;;;4890813;29;21001;-83
2023/05/25 11:28:34;;;;;;;21.10;20.00;;;19.20;99.90;;;;;;4893100;29;20448;-82
2023/05/25 11:31:06;;;;;;;21.13;20.03;;;19.30;99.90;;;;;;4894099;29;20471;-82
2023/05/25 11:33:34;;;;;;;20.93;19.93;;;19.30;99.90;;;;;;4894051;29;20451;-82
2023/05/25 11:36:02;;;;;;;21.33;20.03;;;19.30;99.90;;;;;;4888089;29;20475;-83
2023/05/25 11:38:34;;;;;;;21.40;20.20;;;19.30;99.90;;;;;;4892026;29;20486;-81
2023/05/25 11:41:17;;;;;;;21.40;20.10;;;19.30;99.90;;;;;;4885494;29;20487;-82
2023/05/25 11:43:55;;;;;;;21.03;19.93;;;19.30;99.90;;;;;;4888951;29;20459;-82
2023/05/25 11:46:47;;;;;;;21.50;20.37;;;19.30;99.90;;;;;;4892674;29;20446;-82
2023/05/25 11:49:40;;;;;;;21.73;20.40;;;19.30;99.90;;;;;;4892837;29;20518;-83
2023/05/25 11:52:35;;;;;;;21.80;20.27;;;19.30;99.90;;;;;;4894629;29;20996;-82
2023/05/25 11:55:30;;;;;;;20.73;19.60;;;19.30;99.90;;;;;;4907688;29;20469;-82
2023/05/25 11:58:27;;;;;;;22.20;21.00;;;19.30;99.90;;;;;;4890507;29;20466;-83
2023/05/25 12:18:18;;;;;;;21.80;20.60;;;19.60;99.90;;;;;;4941199;28;20831;-82
2023/05/25 12:20:46;;;;;;;21.37;20.37;;;19.60;99.90;;;;;;4946702;28;20590;-82
2023/05/25 12:23:15;;;;;;;21.37;20.17;;;19.60;99.90;;;;;;4950078;29;20484;-83
2023/05/25 12:26:12;;;;;;;21.57;20.47;;;19.60;99.90;;;;;;4947495;29;20440;-83
2023/05/25 12:29:30;;;;;;;21.07;19.77;;;19.70;99.90;;;;;;4887784;29;20509;-83
2023/05/25 12:36:38;;;;;;;20.47;19.47;;;19.80;99.90;;;;;;4882828;29;20495;-83
2023/05/25 12:57:58;;;;;;;21.00;20.00;;;20.00;99.90;;;;;;4946725;28;20415;-82
2023/05/25 13:00:52;;;;;;;22.93;21.40;;;20.00;99.90;;;;;;4946924;28;20986;-83
2023/05/25 13:03:55;;;;;;;20.33;19.43;;;20.10;99.90;;;;;;4947461;29;20468;-84
2023/05/25 13:06:23;;;;;;;21.73;20.27;;;20.10;99.90;;;;;;4940478;29;21041;-83
2023/05/25 13:11:36;;;;;;;21.60;20.40;;;20.10;99.90;;;;;;4930756;29;20580;-84
2023/05/25 13:14:05;;;;;;;21.87;20.47;;;20.10;99.90;;;;;;4926698;29;20586;-84
2023/05/25 13:37:42;;;;;;;21.57;20.50;;;20.40;99.90;;;;;;4932591;28;21476;-85
2023/05/25 13:41:02;;;;;;;21.87;20.43;;;20.40;99.90;;;;;;4956316;28;20498;-83
2023/05/25 13:43:55;;;;;;;20.83;19.57;;;20.40;99.90;;;;;;4960697;28;20501;-83
2023/05/25 13:46:51;;;;;;;21.30;20.00;;;20.40;99.90;;;;;;4971019;28;20470;-83
2023/05/25 13:50:10;;;;;;;20.90;19.50;;;20.50;99.90;;;;;;4965436;23;21105;-83
2023/05/25 13:57:04;;;;;;;20.20;18.80;;;20.50;99.90;;;;;;4902104;29;20476;-84
2023/05/25 14:03:54;;;;;;;20.00;19.00;;;20.50;99.90;;;;;;4926332;28;20590;-82
2023/05/25 14:06:23;;;;;;;19.00;18.00;;;20.60;99.90;;;;;;4927168;28;20704;-85
2023/05/25 14:08:55;;;;;;;19.40;18.40;;;20.60;99.90;;;;;;4950888;23;20468;31
2023/05/25 14:11:27;;;;;;;19.70;18.80;;;20.60;99.90;;;;;;4898176;29;20479;-82
2023/05/25 14:13:57;;;;;;;20.43;19.33;;;20.50;99.90;;;;;;4899718;29;20514;-83
2023/05/25 14:16:26;;;;;;;19.30;18.30;;;20.50;99.90;;;;;;4903716;29;20514;-83
2023/05/25 14:18:55;;;;;;;19.67;18.57;;;20.50;99.90;;;;;;4905803;29;20552;-83
2023/05/25 14:21:23;;;;;;;19.07;17.93;;;20.50;99.90;;;;;;4906370;29;20476;-83
2023/05/25 14:23:52;;;;;;;19.80;18.70;;;20.60;99.90;;;;;;4900238;29;20857;-84
2023/05/25 14:26:20;;;;;;;19.60;18.27;;;20.60;99.90;;;;;;4900348;29;20456;-83
2023/05/25 14:28:49;;;;;;;20.87;19.53;;;20.70;99.90;;;;;;4898879;29;20478;-83
2023/05/25 14:31:19;;;;;;;19.70;18.17;;;20.70;99.90;;;;;;4896106;29;20513;-84
2023/05/25 14:33:47;;;;;;;19.30;18.20;;;20.70;99.90;;;;;;4900607;29;20592;-85
2023/05/25 14:36:15;;;;;;;19.63;18.30;;;20.70;99.90;;;;;;4897029;29;20450;-84
2023/05/25 14:38:44;;;;;;;19.73;18.63;;;20.70;99.90;;;;;;4901257;29;20463;-85
2023/05/25 14:41:12;;;;;;;18.50;17.70;;;20.70;99.90;;;;;;4900678;29;20462;-84
2023/05/25 14:43:41;;;;;;;20.30;19.10;;;20.70;99.90;;;;;;4901241;29;20528;-84
2023/05/25 14:46:09;;;;;;;20.70;19.23;;;20.70;99.90;;;;;;4901111;29;20458;-83
2023/05/25 14:48:39;;;;;;;20.60;19.50;;;20.70;99.90;;;;;;4898459;29;20471;-84
2023/05/25 14:51:07;;;;;;;21.03;19.63;;;20.70;99.90;;;;;;4902447;29;20474;-84